createdAt,value
2022-10-11T00:06:44.529Z,5.22
2022-10-11T00:14:18.094Z,3.72
2022-10-11T00:21:53.525Z,3.08
2022-10-11T00:29:27.233Z,6.13
2022-10-11T00:37:02.309Z,4.85
2022-10-11T00:52:17.117Z,4.20
2022-10-11T00:59:53.371Z,2.53
2022-10-11T01:07:31.315Z,4.40
2022-10-11T01:15:14.999Z,3.25
2022-10-11T01:23:26.920Z,1.88
2022-10-11T01:31:11.012Z,5.13
2022-10-11T01:38:51.123Z,5.15
2022-10-11T01:46:27.227Z,5.47
2022-10-11T01:54:11.992Z,4.03
2022-10-11T02:01:57.403Z,12.90
2022-10-11T02:17:14.942Z,7.15
2022-10-11T02:24:52.959Z,3.42
2022-10-11T02:32:31.203Z,4.43
2022-10-11T02:40:12.108Z,6.55
2022-10-11T02:47:47.992Z,4.05
2022-10-11T02:55:21.919Z,5.50
2022-10-11T03:02:56.865Z,8.98
2022-10-11T03:18:05.442Z,4.63
2022-10-11T03:25:39.615Z,6.40
2022-10-11T03:33:14.643Z,4.27
2022-10-11T03:48:23.433Z,7.85
2022-10-11T03:55:57.685Z,9.07
2022-10-11T04:03:32.712Z,4.40
2022-10-11T04:18:41.241Z,4.25
2022-10-11T04:26:14.965Z,5.88
2022-10-11T04:33:50.081Z,9.35
2022-10-11T04:41:23.689Z,7.25
2022-10-11T04:48:59.523Z,8.45
2022-10-11T04:56:33.534Z,7.43
2022-10-11T05:04:08.938Z,4.83
2022-10-11T05:11:42.580Z,6.72
2022-10-11T05:19:17.883Z,6.20
2022-10-11T05:26:51.557Z,5.53
2022-10-11T05:34:26.617Z,6.57
2022-10-11T05:42:00.275Z,8.95
2022-10-11T05:49:35.288Z,11.20
2022-10-11T05:57:08.907Z,6.22
2022-10-11T06:04:43.980Z,4.55
2022-10-11T06:12:17.834Z,9.48
2022-10-11T06:19:52.866Z,8.15
2022-10-11T06:27:26.764Z,18.92
2022-10-11T06:35:03.348Z,4.40
2022-10-11T06:42:36.954Z,8.88
2022-10-11T06:50:13.290Z,7.07
2022-10-11T06:57:46.909Z,10.07
2022-10-11T07:05:21.972Z,13.80
2022-10-11T07:12:55.608Z,4.93
2022-10-11T07:20:30.685Z,15.43
2022-10-11T07:28:04.664Z,16.35
2022-10-11T07:35:39.668Z,9.50
2022-10-11T07:50:49.699Z,7.60
2022-10-11T07:58:23.319Z,9.65
2022-10-11T08:06:03.041Z,5.85
2022-10-11T08:13:37.088Z,8.18
2022-10-11T08:21:13.967Z,13.82
2022-10-11T08:28:47.677Z,8.80
2022-10-11T08:36:22.933Z,4.45
2022-10-11T08:44:18.684Z,8.20
2022-10-11T08:59:41.461Z,12.45
2022-10-11T09:07:22.866Z,10.88
2022-10-11T09:15:10.897Z,7.30
2022-10-11T09:22:54.155Z,6.85
2022-10-11T09:30:27.877Z,12.40
2022-10-11T09:38:07.728Z,7.70
2022-10-11T09:45:49.217Z,7.90
2022-10-11T09:53:57.473Z,10.00
2022-10-11T10:01:33.518Z,5.82
2022-10-11T10:09:26.894Z,6.95
2022-10-11T10:17:03.641Z,8.07
2022-10-11T10:24:42.233Z,7.10
2022-10-11T10:32:26.275Z,6.65
2022-10-11T10:40:06.959Z,11.05
2022-10-11T10:48:00.438Z,7.13
2022-10-11T10:55:41.378Z,6.00
2022-10-11T11:03:23.332Z,6.07
2022-10-11T11:11:04.896Z,14.23
2022-10-11T11:18:46.878Z,7.60
2022-10-11T11:26:31.051Z,11.98
2022-10-11T11:34:14.131Z,3.83
2022-10-11T11:41:54.499Z,7.30
2022-10-11T11:49:35.440Z,8.38
2022-10-11T11:57:19.207Z,6.47
2022-10-11T12:04:53.939Z,5.97
2022-10-11T12:12:34.224Z,5.20
2022-10-11T12:20:15.915Z,10.75
2022-10-11T12:27:53.560Z,6.40
2022-10-11T12:36:07.277Z,9.77
2022-10-11T12:44:20.517Z,5.28
2022-10-11T12:52:01.405Z,4.75
2022-10-11T12:59:46.528Z,5.43
2022-10-11T13:07:23.671Z,4.20
2022-10-11T13:15:04.295Z,7.30
2022-10-11T13:22:41.013Z,3.95
2022-10-11T13:30:20.120Z,7.13
2022-10-11T13:37:53.931Z,4.30
2022-10-11T13:45:30.683Z,6.63
2022-10-11T13:53:22.710Z,2.38
2022-10-11T14:00:59.734Z,7.53
2022-10-11T14:08:38.992Z,5.72
2022-10-11T14:16:28.822Z,4.88
2022-10-11T14:24:06.086Z,4.72
2022-10-11T14:31:42.338Z,4.45
2022-10-11T14:39:18.220Z,4.60
2022-10-11T14:46:54.933Z,3.22
2022-10-11T14:54:30.203Z,5.43
2022-10-11T15:09:39.968Z,2.90
2022-10-11T15:17:14.883Z,1.27
2022-10-11T15:24:51.688Z,10.45
2022-10-11T15:32:27.055Z,3.10
2022-10-11T15:47:40.651Z,5.22
2022-10-11T15:55:14.321Z,4.80
2022-10-11T16:02:49.264Z,3.80
2022-10-11T16:10:22.966Z,5.00
2022-10-11T16:17:58.169Z,11.07
2022-10-11T16:25:31.858Z,7.25
2022-10-11T16:33:07.053Z,8.15
2022-10-11T16:40:42.267Z,5.72
2022-10-11T16:48:17.261Z,8.85
2022-10-11T16:55:50.947Z,9.85
2022-10-11T17:03:26.431Z,20.67
2022-10-11T17:11:00.362Z,16.85
2022-10-11T17:18:35.599Z,21.27
2022-10-11T17:26:12.012Z,20.20
2022-10-11T17:33:47.182Z,17.42
2022-10-11T17:49:07.098Z,24.45
2022-10-11T17:56:42.609Z,23.52
2022-10-11T18:04:20.051Z,18.67
2022-10-11T18:11:54.105Z,16.77
2022-10-11T18:19:29.095Z,16.88
2022-10-11T18:27:02.980Z,8.95
2022-10-11T18:34:37.910Z,10.88
2022-10-11T18:42:11.504Z,12.27
2022-10-11T18:49:46.548Z,14.15
2022-10-11T19:04:55.877Z,19.20
2022-10-11T19:12:29.542Z,13.63
2022-10-11T19:20:06.291Z,19.33
2022-10-11T19:27:40.156Z,17.45
2022-10-11T19:35:19.674Z,18.98
2022-10-11T19:42:53.867Z,19.25
2022-10-11T19:50:29.011Z,15.18
2022-10-11T19:58:08.054Z,16.48
2022-10-11T20:05:43.665Z,12.23
2022-10-11T20:13:17.270Z,14.75
2022-10-11T20:20:56.252Z,17.33
2022-10-11T20:28:31.737Z,19.52
2022-10-11T20:36:09.832Z,17.67
2022-10-11T20:43:44.411Z,17.23
2022-10-11T20:51:20.330Z,19.98
2022-10-11T20:58:55.588Z,18.85
2022-10-11T21:06:32.471Z,17.63
2022-10-11T21:14:07.339Z,14.77
2022-10-11T21:29:16.202Z,17.77
2022-10-11T21:36:51.658Z,13.80
2022-10-11T21:44:25.428Z,14.73
2022-10-11T21:52:00.331Z,12.38
2022-10-11T22:07:09.067Z,18.58
2022-10-11T22:14:43.018Z,14.55
2022-10-11T22:22:18.374Z,15.50
2022-10-11T22:29:52.166Z,15.05
2022-10-11T22:37:27.306Z,16.25
2022-10-11T22:45:00.855Z,16.67
2022-10-11T22:52:36.001Z,13.85
2022-10-11T23:00:10.839Z,14.90
2022-10-11T23:15:20.557Z,17.05
2022-10-11T23:22:55.726Z,20.10
2022-10-11T23:30:30.034Z,18.90
2022-10-11T23:38:05.033Z,16.03
2022-10-11T23:45:38.820Z,17.63
2022-10-11T23:53:14.327Z,17.63
